Time;durP1;ratioP1;P1;durP2;ratioP2;P2;SDS_P1;SDS_P2;PMS_P1;PMS_P2;Temp;Humidity;BMP_temperature;BMP_pressure;BME280_temperature;BME280_humidity;BME280_pressure;Samples;Min_cycle;Max_cycle;Signal;HPM_P1;HPM_P2
2022/05/24 00:01:24;;;;;;;6.97;2.72;;;14.60;99.90;;;;;;5053704;28;20190;-86
2022/05/24 00:03:50;;;;;;;11.10;3.35;;;14.50;99.90;;;;;;5069260;28;20171;-85
2022/05/24 00:06:16;;;;;;;9.48;2.67;;;14.60;99.90;;;;;;5054540;28;20163;-85
2022/05/24 00:08:42;;;;;;;7.47;2.67;;;14.70;99.90;;;;;;5055736;28;20229;-83
2022/05/24 00:11:08;;;;;;;6.80;2.42;;;14.60;99.90;;;;;;5037241;28;20254;-86
2022/05/24 00:13:34;;;;;;;5.03;2.47;;;14.50;99.90;;;;;;5053120;28;20178;-84
2022/05/24 00:16:00;;;;;;;9.48;2.53;;;14.40;99.90;;;;;;5035603;28;20250;-80
2022/05/24 00:18:28;;;;;;;5.93;2.00;;;14.40;99.90;;;;;;5035704;28;20197;-82
2022/05/24 00:21:00;;;;;;;5.30;2.17;;;14.20;99.90;;;;;;5035448;28;20649;-86
2022/05/24 00:23:28;;;;;;;12.25;2.67;;;14.10;99.90;;;;;;5053417;28;20189;-81
2022/05/24 00:25:57;;;;;;;7.93;2.20;;;14.20;99.90;;;;;;5053121;28;20163;-84
2022/05/24 00:28:25;;;;;;;8.07;2.38;;;14.20;99.90;;;;;;5035778;28;20207;-84
2022/05/24 00:30:53;;;;;;;5.25;2.25;;;14.20;99.90;;;;;;5053308;28;20221;-86
2022/05/24 00:33:20;;;;;;;7.57;2.50;;;14.20;99.90;;;;;;5068611;28;20167;-85
2022/05/24 00:35:47;;;;;;;13.68;2.53;;;14.00;99.90;;;;;;5068979;28;20216;-84
2022/05/24 00:38:29;;;;;;;11.20;2.25;;;14.20;99.90;;;;;;5035362;28;20198;-81
2022/05/24 00:41:13;;;;;;;7.72;2.05;;;14.10;99.90;;;;;;5052553;28;20174;-83
2022/05/24 00:43:45;;;;;;;12.50;2.72;;;14.00;99.90;;;;;;5052707;28;20523;-83
2022/05/24 00:46:44;;;;;;;15.23;3.10;;;14.10;99.90;;;;;;5068256;28;20159;-87
2022/05/24 00:49:20;;;;;;;7.70;1.92;;;14.10;99.90;;;;;;5035130;28;20214;-84
2022/05/24 00:51:54;;;;;;;4.38;1.95;;;14.00;99.90;;;;;;5035169;28;20187;-85
2022/05/24 00:54:20;;;;;;;8.27;2.35;;;14.10;99.90;;;;;;5052278;28;20228;-84
2022/05/24 00:57:22;;;;;;;4.30;2.00;;;14.00;99.90;;;;;;5052715;28;20623;-84
2022/05/24 00:59:55;;;;;;;8.70;1.85;;;13.80;99.90;;;;;;5053575;28;20641;-80
2022/05/24 01:02:21;;;;;;;11.32;2.45;;;13.80;99.90;;;;;;5067822;28;20221;-84
2022/05/24 01:04:47;;;;;;;3.72;1.60;;;13.90;99.90;;;;;;5034696;28;20202;-80
2022/05/24 01:07:13;;;;;;;15.05;2.28;;;14.10;99.90;;;;;;5052686;28;20191;-81
2022/05/24 01:09:51;;;;;;;6.97;1.98;;;14.20;99.90;;;;;;5034537;28;20206;-80
2022/05/24 01:12:25;;;;;;;10.82;1.98;;;14.00;99.90;;;;;;5035051;28;20174;-86
2022/05/24 01:14:54;;;;;;;8.80;1.85;;;14.00;99.90;;;;;;5035120;28;20216;-84
2022/05/24 01:17:20;;;;;;;12.40;1.80;;;14.00;99.90;;;;;;5034315;28;20195;-79
2022/05/24 01:19:48;;;;;;;6.68;1.50;;;14.10;99.90;;;;;;5034617;28;20182;-80
2022/05/24 01:22:45;;;;;;;5.35;1.92;;;14.00;99.90;;;;;;5034886;28;20175;-89
2022/05/24 01:25:25;;;;;;;8.70;1.63;;;14.00;99.90;;;;;;5052075;28;20182;-88
2022/05/24 01:27:51;;;;;;;7.88;1.98;;;14.00;99.90;;;;;;5052001;28;20186;-81
2022/05/24 01:30:17;;;;;;;9.23;1.83;;;14.00;99.90;;;;;;5067687;28;20171;-84
2022/05/24 01:38:20;;;;;;;6.32;1.63;;;13.80;99.90;;;;;;5053264;28;20544;-87
2022/05/24 01:40:47;;;;;;;15.50;2.13;;;13.80;99.90;;;;;;5034824;28;20178;-85
2022/05/24 01:43:18;;;;;;;2.97;1.55;;;13.90;99.90;;;;;;5034816;28;20194;-81
2022/05/24 01:45:52;;;;;;;3.97;1.50;;;13.90;99.90;;;;;;5051726;28;20203;-80
2022/05/24 01:48:22;;;;;;;14.02;2.38;;;13.80;99.90;;;;;;5034015;28;20296;-81
2022/05/24 01:50:50;;;;;;;5.55;2.03;;;13.70;99.90;;;;;;5052838;28;20187;-87
2022/05/24 01:53:20;;;;;;;13.45;1.60;;;13.60;99.90;;;;;;5038194;28;20220;-82
2022/05/24 01:55:51;;;;;;;7.22;1.77;;;13.60;99.90;;;;;;5055925;28;20518;-81
2022/05/24 01:58:20;;;;;;;10.77;1.83;;;13.60;99.90;;;;;;5038333;28;20179;-83
2022/05/24 02:01:09;;;;;;;9.88;1.60;;;13.80;99.90;;;;;;5055630;28;20708;-88
2022/05/24 02:03:35;;;;;;;9.00;1.80;;;13.60;99.90;;;;;;5055714;28;20184;-81
2022/05/24 02:06:21;;;;;;;8.57;1.27;;;13.50;99.90;;;;;;5056421;28;20175;-84
2022/05/24 02:08:46;;;;;;;5.40;1.33;;;13.60;99.90;;;;;;5038128;28;20213;-83
2022/05/24 02:11:14;;;;;;;9.98;1.60;;;13.80;99.90;;;;;;5055714;28;20246;-81
2022/05/24 02:13:44;;;;;;;3.67;1.80;;;14.00;99.90;;;;;;5056397;28;20708;-81
2022/05/24 02:16:13;;;;;;;4.57;1.63;;;14.00;99.90;;;;;;5037808;28;20305;-84
2022/05/24 02:18:43;;;;;;;6.13;1.98;;;14.10;99.90;;;;;;5056049;28;20182;-85
2022/05/24 02:21:09;;;;;;;5.60;1.30;;;14.10;99.90;;;;;;5037624;28;20228;-86
2022/05/24 02:23:44;;;;;;;3.95;1.38;;;14.10;99.90;;;;;;5037892;28;20178;-81
2022/05/24 02:26:12;;;;;;;19.38;2.05;;;14.10;99.90;;;;;;5055668;28;20181;-85
2022/05/24 02:28:37;;;;;;;4.88;2.08;;;13.90;99.90;;;;;;5055249;28;20206;-81
2022/05/24 02:31:08;;;;;;;4.70;1.38;;;14.00;99.90;;;;;;5055295;28;20170;-87
2022/05/24 02:33:33;;;;;;;3.10;1.40;;;14.10;99.90;;;;;;5055453;28;20171;-87
2022/05/24 02:36:00;;;;;;;5.20;1.23;;;14.10;99.90;;;;;;5055430;28;20250;-84
2022/05/24 02:38:26;;;;;;;4.80;1.25;;;14.20;99.90;;;;;;5037318;28;20183;-84
2022/05/24 02:43:37;;;;;;;8.13;2.13;;;13.80;99.90;;;;;;5055493;28;20173;-86
2022/05/24 02:46:03;;;;;;;5.25;1.90;;;13.80;99.90;;;;;;5054907;28;20225;-82
2022/05/24 02:48:29;;;;;;;10.88;1.80;;;13.90;99.90;;;;;;5037176;28;20605;-86
2022/05/24 02:50:55;;;;;;;7.97;1.52;;;14.00;99.90;;;;;;5036893;28;20175;-90
2022/05/24 02:53:21;;;;;;;8.82;1.83;;;14.00;99.90;;;;;;5037082;28;20577;-86
2022/05/24 02:55:47;;;;;;;7.30;2.28;;;14.00;99.90;;;;;;5054373;28;20201;-83
2022/05/24 02:58:13;;;;;;;5.80;1.20;;;14.10;99.90;;;;;;5036623;28;20240;-88
2022/05/24 03:00:40;;;;;;;4.18;1.45;;;14.00;99.90;;;;;;5036783;28;20179;-86
2022/05/24 03:03:06;;;;;;;6.53;1.40;;;14.00;99.90;;;;;;5053557;28;20238;-87
2022/05/24 03:05:32;;;;;;;8.40;1.45;;;13.90;99.90;;;;;;5054402;28;20155;-84
2022/05/24 03:10:42;;;;;;;6.28;1.40;;;13.80;99.90;;;;;;5055050;28;20545;-87
2022/05/24 03:15:52;;;;;;;5.50;1.13;;;13.80;99.90;;;;;;5054909;28;20348;-85
2022/05/24 03:18:20;;;;;;;10.23;1.92;;;13.90;99.90;;;;;;5053856;28;20718;-90
2022/05/24 03:20:46;;;;;;;5.57;1.17;;;13.80;99.90;;;;;;5054050;28;20159;-89
2022/05/24 03:23:14;;;;;;;12.35;1.80;;;13.70;99.90;;;;;;5070127;28;20171;-84
2022/05/24 03:25:40;;;;;;;2.70;1.00;;;13.70;99.90;;;;;;5054323;28;20225;-83
2022/05/24 03:28:07;;;;;;;3.13;1.40;;;13.60;99.90;;;;;;5054285;28;20199;-84
2022/05/24 03:30:38;;;;;;;8.18;1.50;;;13.50;99.90;;;;;;5054444;28;20175;-85
2022/05/24 03:33:04;;;;;;;14.25;1.55;;;13.50;99.90;;;;;;5054411;28;20197;-83
2022/05/24 03:35:30;;;;;;;9.45;1.20;;;13.40;99.90;;;;;;5054477;28;20199;-82
2022/05/24 03:37:55;;;;;;;7.65;1.35;;;13.40;99.90;;;;;;5036612;28;20197;-79
2022/05/24 03:40:21;;;;;;;9.60;1.00;;;13.40;99.90;;;;;;5055724;28;20163;-82
2022/05/24 03:42:47;;;;;;;8.85;1.40;;;13.40;99.90;;;;;;5055137;28;20167;-85
2022/05/24 03:45:13;;;;;;;6.22;1.58;;;13.50;99.90;;;;;;5035328;28;20183;-81
2022/05/24 03:47:39;;;;;;;3.13;0.85;;;13.50;99.90;;;;;;5053982;28;20214;-84
2022/05/24 03:50:07;;;;;;;7.10;1.23;;;13.60;99.90;;;;;;5054726;28;20625;-85
2022/05/24 03:52:33;;;;;;;5.65;1.35;;;13.60;99.90;;;;;;5052656;28;20242;-86
2022/05/24 03:54:58;;;;;;;6.28;1.75;;;13.50;99.90;;;;;;5067418;28;20206;-89
2022/05/24 04:00:10;;;;;;;6.10;1.15;;;13.50;99.90;;;;;;5052529;28;20548;-87
2022/05/24 04:02:36;;;;;;;15.13;1.63;;;13.40;99.90;;;;;;5053239;28;20171;-93
2022/05/24 04:05:02;;;;;;;9.98;1.52;;;13.50;99.90;;;;;;5035724;28;20175;-90
2022/05/24 04:07:28;;;;;;;2.17;1.48;;;13.50;99.90;;;;;;5053153;28;20722;-86
2022/05/24 04:09:53;;;;;;;7.38;1.30;;;13.40;99.90;;;;;;5052993;28;20670;-79
2022/05/24 04:12:19;;;;;;;4.80;1.52;;;13.40;99.90;;;;;;5035456;28;20174;-82
2022/05/24 04:14:44;;;;;;;11.35;1.40;;;13.60;99.90;;;;;;5034589;28;20179;-87
2022/05/24 04:17:10;;;;;;;2.72;1.80;;;13.40;99.90;;;;;;5035708;28;20655;-81
2022/05/24 04:19:36;;;;;;;6.72;1.95;;;13.30;99.90;;;;;;5053414;28;20178;-84
2022/05/24 04:22:01;;;;;;;4.32;1.40;;;13.30;99.90;;;;;;5053648;28;20567;-90
2022/05/24 04:24:27;;;;;;;2.75;1.50;;;13.30;99.90;;;;;;5035557;28;20179;-80
2022/05/24 04:26:53;;;;;;;5.75;1.30;;;13.40;99.90;;;;;;5035328;28;20203;-85
2022/05/24 04:29:18;;;;;;;8.40;1.70;;;13.30;99.90;;;;;;5053538;28;20210;-84
2022/05/24 04:31:44;;;;;;;4.47;1.80;;;13.30;99.90;;;;;;5068443;28;20182;-86
2022/05/24 04:34:09;;;;;;;6.85;1.40;;;13.30;99.90;;;;;;5068040;28;20567;-81
2022/05/24 04:36:35;;;;;;;7.28;1.70;;;13.40;99.90;;;;;;5052886;28;20170;-84
2022/05/24 04:39:01;;;;;;;6.00;1.83;;;13.40;99.90;;;;;;5053194;28;20155;-83
2022/05/24 04:44:11;;;;;;;11.23;2.00;;;13.50;99.90;;;;;;5053661;28;20233;-92
2022/05/24 04:49:23;;;;;;;8.80;2.28;;;13.60;99.90;;;;;;5053532;28;20298;-91
2022/05/24 04:51:52;;;;;;;3.75;1.42;;;13.70;99.90;;;;;;5035351;28;20163;-90
2022/05/24 04:54:17;;;;;;;6.63;2.03;;;13.80;99.90;;;;;;5053652;28;20527;-87
2022/05/24 04:56:43;;;;;;;7.22;1.60;;;13.90;99.90;;;;;;5052513;28;20167;-80
2022/05/24 04:59:08;;;;;;;7.38;1.50;;;13.80;99.90;;;;;;5052298;28;20171;-80
2022/05/24 05:01:34;;;;;;;3.55;1.70;;;13.90;99.90;;;;;;5034512;28;20183;-86
2022/05/24 05:04:00;;;;;;;5.15;2.13;;;13.80;99.90;;;;;;5034733;28;20166;-80
2022/05/24 05:06:26;;;;;;;6.35;2.13;;;13.90;99.90;;;;;;5052267;28;20242;-80
2022/05/24 05:08:51;;;;;;;12.50;1.63;;;14.00;99.90;;;;;;5052590;28;20573;-84
2022/05/24 05:11:17;;;;;;;10.27;1.48;;;13.90;99.90;;;;;;5052669;28;20164;-81
2022/05/24 05:13:43;;;;;;;5.43;1.48;;;14.10;99.90;;;;;;5034908;28;20229;-83
2022/05/24 05:16:08;;;;;;;11.63;2.30;;;14.10;99.90;;;;;;5052508;28;20645;-85
2022/05/24 05:18:34;;;;;;;9.85;2.00;;;14.10;99.90;;;;;;5052656;28;20175;-82
2022/05/24 05:21:00;;;;;;;5.10;1.65;;;14.20;99.90;;;;;;5052522;28;20681;-86
2022/05/24 05:23:26;;;;;;;11.25;1.58;;;14.30;99.90;;;;;;5034795;28;20171;-85
2022/05/24 05:25:51;;;;;;;7.57;1.63;;;14.30;99.90;;;;;;5035377;28;20178;-82
2022/05/24 05:28:19;;;;;;;13.18;1.88;;;14.40;99.90;;;;;;5038879;28;20756;-82
2022/05/24 05:33:30;;;;;;;3.50;1.60;;;14.40;99.90;;;;;;5056336;28;20259;-82
2022/05/24 05:35:56;;;;;;;8.75;1.67;;;14.50;99.90;;;;;;5038481;28;20257;-85
2022/05/24 05:38:21;;;;;;;4.35;1.50;;;14.60;99.90;;;;;;5056064;28;20187;-80
2022/05/24 05:40:52;;;;;;;7.47;1.42;;;14.70;99.90;;;;;;5056440;28;20168;-87
2022/05/24 05:43:18;;;;;;;3.05;1.50;;;14.80;99.90;;;;;;5038205;28;20182;-87
2022/05/24 05:45:51;;;;;;;4.28;1.30;;;14.60;99.90;;;;;;5056065;28;20172;-85
2022/05/24 05:48:17;;;;;;;7.95;1.23;;;14.60;99.90;;;;;;5045479;28;20234;-82
2022/05/24 05:50:44;;;;;;;3.97;1.23;;;14.50;99.90;;;;;;5042869;28;20179;-81
2022/05/24 05:53:09;;;;;;;8.23;1.52;;;14.70;99.90;;;;;;5043387;28;20163;-86
2022/05/24 05:55:38;;;;;;;6.40;1.45;;;15.00;99.90;;;;;;5058983;28;20220;-87
2022/05/24 05:58:04;;;;;;;8.90;1.27;;;15.20;99.90;;;;;;5042544;28;20187;-88
2022/05/24 06:00:29;;;;;;;6.80;1.13;;;15.40;99.90;;;;;;5059477;28;20546;-84
2022/05/24 06:02:55;;;;;;;5.70;0.95;;;15.30;99.90;;;;;;5058714;28;20246;-82
2022/05/24 06:05:20;;;;;;;4.82;1.20;;;15.10;99.90;;;;;;5056770;28;20651;-84
2022/05/24 06:07:46;;;;;;;4.15;1.65;;;15.10;99.90;;;;;;5073252;28;20193;-83
2022/05/24 06:10:13;;;;;;;9.02;1.38;;;15.20;99.90;;;;;;5056302;28;20172;-84
2022/05/24 06:12:38;;;;;;;3.20;1.05;;;15.20;99.90;;;;;;5055454;28;20164;-84
2022/05/24 06:15:04;;;;;;;4.88;0.88;;;15.30;99.90;;;;;;5055189;28;20601;-81
2022/05/24 06:17:30;;;;;;;4.18;1.17;;;15.20;99.90;;;;;;5055753;28;20669;-84
2022/05/24 06:20:02;;;;;;;4.28;0.93;;;15.30;99.90;;;;;;5038153;28;20175;-83
2022/05/24 06:22:27;;;;;;;4.70;1.15;;;15.40;99.90;;;;;;5039763;28;20183;-85
2022/05/24 06:24:53;;;;;;;3.78;1.02;;;15.30;99.90;;;;;;5058534;28;21185;-82
2022/05/24 06:27:22;;;;;;;4.18;1.45;;;15.00;99.90;;;;;;5039504;28;20543;-82
2022/05/24 06:29:49;;;;;;;5.95;1.30;;;15.10;99.90;;;;;;5043580;28;20198;-79
2022/05/24 06:32:15;;;;;;;5.68;1.50;;;15.40;99.90;;;;;;5055725;28;20632;-89
2022/05/24 06:34:40;;;;;;;7.25;1.35;;;15.60;99.90;;;;;;5055825;28;20278;-85
2022/05/24 06:37:06;;;;;;;8.98;1.40;;;15.50;99.90;;;;;;5054935;28;20565;-84
2022/05/24 06:39:32;;;;;;;7.60;1.40;;;15.40;99.90;;;;;;5056126;28;20173;-87
2022/05/24 06:41:57;;;;;;;4.88;1.45;;;15.40;99.90;;;;;;5055615;28;20174;-79
2022/05/24 06:44:23;;;;;;;3.97;1.48;;;15.40;99.90;;;;;;5055924;28;20210;-83
2022/05/24 06:46:49;;;;;;;8.63;1.48;;;15.60;99.90;;;;;;5037770;28;20210;-79
2022/05/24 06:49:14;;;;;;;1.70;1.17;;;15.40;99.90;;;;;;5055262;28;20211;-84
2022/05/24 06:51:40;;;;;;;11.45;1.40;;;15.50;99.90;;;;;;5056138;28;20151;-85
2022/05/24 06:54:06;;;;;;;4.28;1.25;;;15.70;99.90;;;;;;5037969;28;20174;-87
2022/05/24 06:56:33;;;;;;;2.65;1.48;;;16.10;99.90;;;;;;5055262;28;20171;-83
2022/05/24 07:04:27;;;;;;;4.47;1.60;;;16.20;99.90;;;;;;5052803;22;20226;-80
2022/05/24 07:06:53;;;;;;;5.35;2.00;;;16.30;99.90;;;;;;5034395;28;20279;-83
2022/05/24 07:09:19;;;;;;;13.50;1.95;;;16.40;99.90;;;;;;5034735;28;20254;-88
2022/05/24 07:11:44;;;;;;;5.03;1.35;;;16.20;99.90;;;;;;5017552;28;20171;-83
2022/05/24 07:14:10;;;;;;;3.10;1.30;;;16.30;99.90;;;;;;5035324;28;20255;-88
2022/05/24 07:16:36;;;;;;;3.47;1.27;;;16.60;99.90;;;;;;5017585;28;20168;-86
2022/05/24 07:19:03;;;;;;;2.47;1.23;;;16.50;99.90;;;;;;5034467;28;20172;-88
2022/05/24 07:21:29;;;;;;;12.45;1.67;;;16.80;99.90;;;;;;5016968;28;20172;-86
2022/05/24 07:23:55;;;;;;;13.02;1.30;;;16.80;99.90;;;;;;5016485;28;20172;-88
2022/05/24 07:26:21;;;;;;;8.80;1.58;;;16.50;99.90;;;;;;5034353;28;20303;-83
2022/05/24 07:28:47;;;;;;;1.52;1.05;;;16.70;99.90;;;;;;5017538;28;20305;-84
2022/05/24 07:31:13;;;;;;;0.82;0.73;;;17.00;99.90;;;;;;5028595;28;20633;-80
2022/05/24 07:33:39;;;;;;;2.20;0.90;;;17.00;99.90;;;;;;5032081;28;20637;-82
2022/05/24 07:36:05;;;;;;;16.17;1.42;;;17.20;99.90;;;;;;5033377;28;20171;-80
2022/05/24 07:38:32;;;;;;;2.55;1.20;;;17.60;99.90;;;;;;5028340;28;20626;-82
2022/05/24 07:46:26;;;;;;;5.15;0.90;;;18.00;99.90;;;;;;5015061;28;20175;-90
2022/05/24 07:48:51;;;;;;;2.97;2.05;;;17.90;99.90;;;;;;5014264;28;20219;-87
2022/05/24 07:51:17;;;;;;;5.68;1.45;;;18.20;99.90;;;;;;5014542;28;20172;-78
2022/05/24 07:53:43;;;;;;;2.28;1.15;;;18.40;99.90;;;;;;5014669;28;20168;-93
2022/05/24 07:56:09;;;;;;;3.25;1.13;;;18.30;99.90;;;;;;5015455;28;20523;-90
2022/05/24 07:58:34;;;;;;;3.05;0.70;;;18.20;99.90;;;;;;5014464;28;20632;-88
2022/05/24 08:01:01;;;;;;;9.25;1.10;;;17.90;99.90;;;;;;5014942;28;20164;-89
2022/05/24 08:03:27;;;;;;;2.38;1.05;;;17.80;99.90;;;;;;5014410;28;20829;-90
2022/05/24 08:05:53;;;;;;;2.88;1.55;;;17.60;99.90;;;;;;5014103;28;20172;-91
2022/05/24 08:08:19;;;;;;;4.88;0.93;;;17.70;99.90;;;;;;5014197;28;20192;-79
2022/05/24 08:10:45;;;;;;;2.03;0.90;;;17.80;99.90;;;;;;5012948;28;20196;-78
2022/05/24 08:13:16;;;;;;;3.38;0.75;;;18.00;99.90;;;;;;5023569;28;20172;-94
2022/05/24 08:15:42;;;;;;;2.13;0.77;;;18.00;99.90;;;;;;5033946;28;20631;-79
2022/05/24 08:18:08;;;;;;;3.55;0.90;;;18.30;99.90;;;;;;5033022;28;20187;-78
2022/05/24 08:20:34;;;;;;;5.70;1.70;;;18.20;99.90;;;;;;5034655;28;20715;-77
2022/05/24 08:23:01;;;;;;;2.97;1.02;;;18.50;99.90;;;;;;5035774;28;20221;-79
2022/05/24 08:25:28;;;;;;;3.97;1.15;;;18.70;99.90;;;;;;5034627;28;20179;-77
2022/05/24 08:27:55;;;;;;;3.55;0.70;;;19.00;99.90;;;;;;5034895;28;20528;-81
2022/05/24 08:30:21;;;;;;;6.00;0.75;;;18.70;99.90;;;;;;5033913;28;20190;-81
2022/05/24 08:32:48;;;;;;;4.30;0.73;;;18.30;99.90;;;;;;5033093;28;20199;-78
2022/05/24 08:35:16;;;;;;;2.83;0.80;;;18.10;99.90;;;;;;5035593;28;20199;-85
2022/05/24 08:37:43;;;;;;;3.35;1.42;;;17.90;99.90;;;;;;5031382;28;20203;-88
2022/05/24 08:40:10;;;;;;;3.08;1.05;;;17.90;99.90;;;;;;5033087;28;20182;-77
2022/05/24 08:42:51;;;;;;;1.17;0.80;;;17.90;99.90;;;;;;5033286;28;20268;-77
2022/05/24 08:48:51;;;;;;;1.77;1.17;;;17.80;99.90;;;;;;5025461;28;20230;-78
2022/05/24 08:51:26;;;;;;;1.58;1.00;;;18.10;99.90;;;;;;5027228;28;20202;-78
2022/05/24 08:54:08;;;;;;;1.60;1.25;;;18.10;99.90;;;;;;5051901;28;20183;-77
2022/05/24 08:56:56;;;;;;;1.40;1.30;;;18.00;99.90;;;;;;5051153;28;20628;-77
2022/05/24 08:59:29;;;;;;;3.13;1.55;;;18.00;99.90;;;;;;5036531;28;20756;-78
2022/05/24 09:01:56;;;;;;;1.33;1.23;;;18.20;99.90;;;;;;5036431;28;20221;-78
2022/05/24 09:04:23;;;;;;;3.72;1.00;;;18.50;99.90;;;;;;5033396;28;20663;-78
2022/05/24 09:06:51;;;;;;;1.48;0.85;;;18.80;99.90;;;;;;5023580;28;20218;-79
2022/05/24 09:09:24;;;;;;;2.03;1.00;;;18.90;99.90;;;;;;5037031;28;20600;-77
2022/05/24 09:12:17;;;;;;;0.80;0.80;;;18.90;99.90;;;;;;5036502;28;20651;-79
2022/05/24 09:14:50;;;;;;;2.72;1.00;;;18.70;99.90;;;;;;5035668;28;20174;-79
2022/05/24 09:17:43;;;;;;;2.70;0.70;;;18.80;99.90;;;;;;5035368;28;20282;-79
2022/05/24 09:20:26;;;;;;;3.25;0.75;;;18.60;99.90;;;;;;5038578;28;20178;-84
2022/05/24 09:23:04;;;;;;;1.48;0.50;;;18.40;99.90;;;;;;5037778;28;20584;-83
2022/05/24 09:25:29;;;;;;;0.40;0.30;;;18.20;99.90;;;;;;5035505;28;20175;-85
2022/05/24 09:27:55;;;;;;;0.50;0.50;;;18.20;99.90;;;;;;5037555;28;20195;-83
2022/05/24 09:30:40;;;;;;;0.30;0.30;;;18.20;99.90;;;;;;5036215;28;20178;-84
2022/05/24 09:33:24;;;;;;;1.60;0.60;;;18.30;99.90;;;;;;5036225;28;20209;-86
2022/05/24 09:35:57;;;;;;;5.63;1.00;;;18.40;99.90;;;;;;5037055;28;20172;-84
2022/05/24 09:38:36;;;;;;;3.95;0.65;;;18.60;99.90;;;;;;5035196;28;20187;-89
2022/05/24 09:41:18;;;;;;;3.03;0.80;;;18.90;99.90;;;;;;5036508;28;20159;-87
2022/05/24 09:44:01;;;;;;;2.45;0.95;;;19.40;99.90;;;;;;5035394;28;20261;-82
2022/05/24 09:46:28;;;;;;;11.15;1.52;;;19.40;99.90;;;;;;5035769;28;20172;-87
2022/05/24 09:49:18;;;;;;;1.70;0.52;;;18.90;99.90;;;;;;5034957;28;20603;-83
2022/05/24 09:51:45;;;;;;;1.30;0.80;;;18.80;99.90;;;;;;5035806;28;20168;-87
2022/05/24 09:54:20;;;;;;;1.85;0.50;;;19.00;99.90;;;;;;5036576;28;20164;-87
2022/05/24 09:57:09;;;;;;;4.95;0.60;;;19.10;99.90;;;;;;5036484;28;20167;-88
2022/05/24 09:59:37;;;;;;;1.05;0.65;;;19.20;99.90;;;;;;5035114;28;20256;-82
2022/05/24 10:02:23;;;;;;;14.88;0.73;;;19.50;99.90;;;;;;5035314;28;20223;-81
2022/05/24 10:04:49;;;;;;;0.50;0.50;;;19.70;99.90;;;;;;5035971;28;20190;-82
2022/05/24 10:07:32;;;;;;;4.85;0.70;;;19.70;99.90;;;;;;5034674;28;20211;-82
2022/05/24 10:10:20;;;;;;;12.00;0.80;;;19.40;99.90;;;;;;5034659;28;20286;-82
2022/05/24 10:13:03;;;;;;;6.55;0.85;;;19.00;99.90;;;;;;5036262;28;20180;-85
2022/05/24 10:15:47;;;;;;;0.73;0.70;;;18.80;99.90;;;;;;5036314;28;20202;-88
2022/05/24 10:18:39;;;;;;;1.73;0.82;;;18.60;99.90;;;;;;5035969;28;20195;-82
2022/05/24 10:21:17;;;;;;;4.50;1.00;;;18.40;99.90;;;;;;5033526;28;20186;-83
2022/05/24 10:24:14;;;;;;;1.60;0.45;;;18.40;99.90;;;;;;5035299;28;20167;-82
2022/05/24 10:26:46;;;;;;;0.50;0.50;;;18.50;99.90;;;;;;5036565;28;20171;-83
2022/05/24 10:29:39;;;;;;;0.57;0.30;;;18.60;99.90;;;;;;5034809;28;20219;-85
2022/05/24 10:39:07;;;;;;;0.50;0.28;;;18.70;99.90;;;;;;5034904;28;20242;-81
2022/05/24 10:41:41;;;;;;;3.63;0.65;;;18.50;99.90;;;;;;5033768;28;20183;-81
2022/05/24 10:44:14;;;;;;;4.13;0.60;;;18.50;99.90;;;;;;5034579;28;20715;-87
2022/05/24 10:46:45;;;;;;;7.32;0.60;;;18.50;99.90;;;;;;5034361;28;20168;-84
2022/05/24 10:49:21;;;;;;;4.28;0.70;;;18.40;99.90;;;;;;5034417;28;20242;-88
2022/05/24 10:52:11;;;;;;;4.72;0.52;;;18.50;99.90;;;;;;5035543;28;20160;-83
2022/05/24 10:54:53;;;;;;;7.50;0.65;;;18.80;99.90;;;;;;5028583;28;20588;-87
2022/05/24 10:57:38;;;;;;;5.75;0.98;;;18.90;99.90;;;;;;5033767;28;20496;-83
2022/05/24 11:00:13;;;;;;;5.72;1.17;;;19.00;99.90;;;;;;5033643;28;20230;-84
2022/05/24 11:02:42;;;;;;;1.25;0.70;;;19.10;99.90;;;;;;5033171;28;20262;-83
2022/05/24 11:05:26;;;;;;;11.43;1.02;;;19.20;99.90;;;;;;5033952;28;20172;-83
2022/05/24 11:08:01;;;;;;;16.38;1.60;;;18.80;99.90;;;;;;5033874;28;20265;-83
2022/05/24 11:10:31;;;;;;;4.07;0.63;;;18.40;99.90;;;;;;5034302;28;20195;-87
2022/05/24 11:13:06;;;;;;;1.38;0.60;;;17.90;99.90;;;;;;5034957;28;20218;-81
2022/05/24 11:15:39;;;;;;;4.50;0.70;;;17.90;99.90;;;;;;5033404;28;20258;-84
2022/05/24 11:18:23;;;;;;;8.30;1.00;;;18.10;99.90;;;;;;5033457;28;20184;-84
2022/05/24 11:21:17;;;;;;;2.58;0.82;;;18.10;99.90;;;;;;5033587;28;20186;-88
2022/05/24 11:23:50;;;;;;;5.57;0.80;;;18.30;99.90;;;;;;5029357;28;20662;-88
2022/05/24 11:26:25;;;;;;;4.15;0.75;;;18.20;99.90;;;;;;5033480;28;20168;-83
2022/05/24 11:28:58;;;;;;;2.85;0.75;;;18.20;99.90;;;;;;5034596;28;20198;-82
2022/05/24 11:31:29;;;;;;;0.73;0.40;;;18.20;99.90;;;;;;5033642;28;20172;-83
2022/05/24 11:33:57;;;;;;;1.05;0.50;;;18.20;99.90;;;;;;5033368;28;20163;-87
2022/05/24 11:36:41;;;;;;;1.85;0.57;;;18.20;99.90;;;;;;5033795;28;20583;-87
2022/05/24 11:39:25;;;;;;;8.25;0.70;;;18.00;99.90;;;;;;5033912;28;20163;-83
2022/05/24 11:42:25;;;;;;;0.77;0.50;;;18.10;99.90;;;;;;5032781;28;20234;-84
2022/05/24 11:44:53;;;;;;;1.30;0.70;;;18.30;99.90;;;;;;5033322;28;20263;-83
2022/05/24 11:47:34;;;;;;;2.22;0.80;;;18.60;99.90;;;;;;5033611;28;20526;-83
2022/05/24 11:50:05;;;;;;;0.65;0.40;;;18.90;99.90;;;;;;5033434;28;20211;-82
2022/05/24 11:52:59;;;;;;;0.95;0.60;;;19.10;99.90;;;;;;5033853;28;20278;-86
2022/05/24 11:55:38;;;;;;;0.85;0.50;;;19.10;99.90;;;;;;5032747;28;20184;-86
2022/05/24 11:58:30;;;;;;;1.10;0.30;;;19.00;99.90;;;;;;5034064;28;20212;-87
2022/05/24 12:01:05;;;;;;;1.08;0.50;;;19.00;99.90;;;;;;5029131;28;20262;-86
2022/05/24 12:09:26;;;;;;;3.03;0.70;;;19.20;99.90;;;;;;5033900;28;20250;-85
2022/05/24 12:12:19;;;;;;;1.80;0.55;;;18.80;99.90;;;;;;5034040;28;20251;-86
2022/05/24 12:14:45;;;;;;;0.60;0.60;;;18.50;99.90;;;;;;5033655;28;20168;-86
2022/05/24 12:17:17;;;;;;;1.10;0.75;;;18.30;99.90;;;;;;5032595;28;20556;-84
2022/05/24 12:19:49;;;;;;;3.13;0.70;;;18.10;99.90;;;;;;5032606;28;20164;-84
2022/05/24 12:22:17;;;;;;;3.85;1.05;;;17.90;99.90;;;;;;5032585;28;20163;-83
2022/05/24 12:24:50;;;;;;;2.03;0.90;;;17.70;99.90;;;;;;5033001;28;20537;-83
2022/05/24 12:27:21;;;;;;;5.45;0.80;;;17.50;99.90;;;;;;5032568;28;20183;-83
2022/05/24 12:29:52;;;;;;;4.22;0.65;;;17.50;99.90;;;;;;5032657;28;20296;-84
2022/05/24 12:32:21;;;;;;;0.98;0.70;;;17.80;99.90;;;;;;5034143;28;20168;-84
2022/05/24 12:34:47;;;;;;;6.28;0.75;;;18.20;99.90;;;;;;5033684;28;20571;-85
2022/05/24 12:37:30;;;;;;;3.28;0.55;;;18.00;99.90;;;;;;5033107;28;20183;-85
2022/05/24 12:40:04;;;;;;;1.27;0.60;;;17.90;99.90;;;;;;5031799;28;20514;-86
2022/05/24 12:42:30;;;;;;;1.10;0.73;;;18.10;99.90;;;;;;5033506;28;20737;-84
2022/05/24 12:45:01;;;;;;;0.80;0.60;;;18.00;99.90;;;;;;5033282;28;20255;-85
2022/05/24 12:47:27;;;;;;;0.77;0.60;;;18.10;99.90;;;;;;5032407;28;20286;-86
2022/05/24 12:49:58;;;;;;;1.23;0.68;;;18.40;99.90;;;;;;5036311;28;20234;-86
2022/05/24 12:52:30;;;;;;;1.20;0.68;;;18.90;99.90;;;;;;5034751;28;20170;-84
2022/05/24 12:55:05;;;;;;;2.20;0.65;;;19.20;99.90;;;;;;5034985;28;20202;-85
2022/05/24 12:57:38;;;;;;;6.22;1.67;;;19.00;99.90;;;;;;5034387;28;20191;-86
2022/05/24 13:00:08;;;;;;;4.90;0.95;;;18.60;99.90;;;;;;5033720;28;20179;-83
2022/05/24 13:02:52;;;;;;;6.88;1.23;;;18.30;99.90;;;;;;5035008;28;20168;-84
2022/05/24 13:05:34;;;;;;;1.90;1.00;;;18.20;99.90;;;;;;5037503;28;20177;-86
2022/05/24 13:08:01;;;;;;;2.90;1.17;;;18.40;99.90;;;;;;5034947;28;20294;-84
2022/05/24 13:10:31;;;;;;;1.08;0.50;;;18.40;99.90;;;;;;5050620;22;20245;-78
2022/05/24 13:13:15;;;;;;;0.77;0.70;;;17.90;99.90;;;;;;5034264;28;20171;-78
2022/05/24 13:15:45;;;;;;;0.80;0.57;;;18.00;99.90;;;;;;5052155;28;20612;-79
2022/05/24 13:18:16;;;;;;;0.95;0.50;;;17.90;99.90;;;;;;5051944;28;20190;-78
2022/05/24 13:20:49;;;;;;;3.97;0.68;;;17.60;99.90;;;;;;5051719;28;20212;-78
2022/05/24 13:23:15;;;;;;;2.00;0.55;;;17.40;99.90;;;;;;5052170;28;20176;-78
2022/05/24 13:26:12;;;;;;;2.25;0.68;;;17.30;99.90;;;;;;5051989;28;20699;-78
2022/05/24 13:28:51;;;;;;;0.90;0.40;;;17.50;99.90;;;;;;5051742;28;20203;-79
2022/05/24 13:34:18;;;;;;;2.72;0.50;;;17.50;99.90;;;;;;5052164;28;20237;-79
2022/05/24 13:36:47;;;;;;;4.82;0.70;;;17.90;99.90;;;;;;5051846;28;20581;-78
2022/05/24 13:39:20;;;;;;;2.72;0.55;;;18.20;99.90;;;;;;5052258;28;20178;-81
2022/05/24 13:41:57;;;;;;;0.40;0.40;;;18.60;99.90;;;;;;5052925;28;20236;-81
2022/05/24 13:44:36;;;;;;;1.10;0.47;;;18.70;99.90;;;;;;5031583;28;20520;-85
2022/05/24 13:47:09;;;;;;;3.53;1.00;;;19.00;99.90;;;;;;5062922;28;20268;-84
2022/05/24 13:49:38;;;;;;;3.10;0.30;;;19.10;99.90;;;;;;5056600;28;20226;-79
2022/05/24 13:52:18;;;;;;;3.70;0.50;;;19.20;99.90;;;;;;5035378;28;20160;-81
2022/05/24 13:54:45;;;;;;;5.75;0.70;;;19.50;99.90;;;;;;5035519;28;20713;-83
2022/05/24 13:57:29;;;;;;;0.85;0.50;;;19.10;99.90;;;;;;5035899;28;20275;-80
2022/05/24 14:00:08;;;;;;;1.60;0.60;;;19.00;99.90;;;;;;5049512;28;20175;-79